Time;durP1;ratioP1;P1;durP2;ratioP2;P2;SDS_P1;SDS_P2;PMS_P1;PMS_P2;Temp;Humidity;BMP_temperature;BMP_pressure;BME280_temperature;BME280_humidity;BME280_pressure;Samples;Min_cycle;Max_cycle;Signal;HPM_P1;HPM_P2
2022/01/02 00:00:42;;;;;;;8.00;4.00;;;2.90;99.90;;;;;;5038797;28;20840;-79
2022/01/02 00:03:08;;;;;;;6.20;4.40;;;3.70;99.90;;;;;;5076775;28;20545;-78
2022/01/02 00:05:38;;;;;;;5.13;4.10;;;3.50;99.90;;;;;;5079004;28;20411;-78
2022/01/02 00:08:05;;;;;;;3.93;3.10;;;3.60;99.90;;;;;;5078305;28;20458;-78
2022/01/02 00:10:36;;;;;;;4.53;3.30;;;3.50;99.90;;;;;;5077396;28;20995;-78
2022/01/02 00:13:03;;;;;;;6.13;3.13;;;3.60;99.90;;;;;;5076554;28;20452;-78
2022/01/02 00:15:29;;;;;;;4.47;2.83;;;3.80;99.90;;;;;;5078876;28;20884;-78
2022/01/02 00:17:57;;;;;;;3.13;2.83;;;3.80;99.90;;;;;;5080031;28;20438;-78
2022/01/02 00:20:33;;;;;;;4.07;2.60;;;3.90;99.90;;;;;;5078889;28;20474;-77
2022/01/02 00:23:06;;;;;;;5.73;2.90;;;4.00;99.90;;;;;;5076613;28;20447;-78
2022/01/02 00:25:39;;;;;;;3.83;2.77;;;4.10;99.90;;;;;;5075337;28;20404;-78
2022/01/02 00:28:11;;;;;;;4.70;3.07;;;4.10;99.90;;;;;;5075453;28;20587;-78
2022/01/02 00:30:37;;;;;;;3.23;2.83;;;4.10;99.90;;;;;;5076821;28;20399;-78
2022/01/02 00:33:03;;;;;;;4.43;2.90;;;4.10;99.90;;;;;;5076620;28;20947;-78
2022/01/02 00:35:29;;;;;;;4.40;2.93;;;4.10;99.90;;;;;;5079586;28;20415;-78
2022/01/02 00:37:54;;;;;;;3.30;2.87;;;4.00;99.90;;;;;;5079303;28;20200;-78
2022/01/02 00:40:20;;;;;;;4.73;2.90;;;3.90;99.90;;;;;;5080535;28;20180;-77
2022/01/02 00:42:52;;;;;;;4.80;3.77;;;3.80;99.90;;;;;;5079755;28;20200;-78
2022/01/02 00:45:27;;;;;;;5.97;3.80;;;3.70;99.90;;;;;;5081142;28;20161;-78
2022/01/02 00:48:13;;;;;;;4.20;3.67;;;3.60;99.90;;;;;;5080991;28;20426;-78
2022/01/02 00:50:44;;;;;;;5.60;3.30;;;3.30;99.90;;;;;;5081187;28;20391;-78
2022/01/02 00:53:12;;;;;;;4.20;2.90;;;3.30;99.90;;;;;;5080828;28;20399;-77
2022/01/02 00:55:39;;;;;;;4.53;3.50;;;3.20;99.90;;;;;;5081092;28;20447;-78
2022/01/02 00:58:16;;;;;;;5.30;3.60;;;3.20;99.90;;;;;;5080754;28;20488;-78
2022/01/02 01:00:49;;;;;;;5.07;2.77;;;3.10;99.90;;;;;;5080953;28;20446;-79
2022/01/02 01:03:30;;;;;;;6.63;3.63;;;3.10;99.90;;;;;;5081458;28;20868;-78
2022/01/02 01:05:57;;;;;;;4.73;3.27;;;3.10;99.90;;;;;;5081496;28;20402;-78
2022/01/02 01:08:24;;;;;;;5.17;2.97;;;3.00;99.90;;;;;;5079814;28;20982;-78
2022/01/02 01:10:50;;;;;;;4.40;3.20;;;3.00;99.90;;;;;;5079572;28;20422;-78
2022/01/02 01:13:17;;;;;;;3.27;2.87;;;3.00;99.90;;;;;;5087222;28;20411;-77
2022/01/02 01:15:43;;;;;;;3.70;2.97;;;3.00;99.90;;;;;;5086705;28;20437;-78
2022/01/02 01:18:09;;;;;;;4.00;2.87;;;3.00;99.90;;;;;;5082022;28;20446;-78
2022/01/02 01:20:41;;;;;;;3.53;2.73;;;2.90;99.90;;;;;;5079669;28;20407;-77
2022/01/02 01:23:15;;;;;;;3.40;2.70;;;3.00;99.90;;;;;;5081871;28;20203;-78
2022/01/02 01:25:45;;;;;;;3.27;2.30;;;3.10;99.90;;;;;;5078138;28;20410;-78
2022/01/02 01:28:11;;;;;;;5.17;2.67;;;3.20;99.90;;;;;;5078327;28;20502;-78
2022/01/02 01:30:37;;;;;;;3.43;2.53;;;3.20;99.90;;;;;;5077621;28;20407;-78
2022/01/02 01:33:03;;;;;;;3.10;2.50;;;3.20;99.90;;;;;;5079524;28;20411;-78
2022/01/02 01:35:28;;;;;;;2.93;2.23;;;3.20;99.90;;;;;;5079833;28;20173;-78
2022/01/02 01:37:54;;;;;;;2.60;2.23;;;3.30;99.90;;;;;;5077801;28;20697;-78
2022/01/02 01:40:20;;;;;;;2.30;2.10;;;3.30;99.90;;;;;;5079143;28;20236;-77
2022/01/02 01:43:00;;;;;;;4.97;2.37;;;3.40;99.90;;;;;;5079421;28;20201;-78
2022/01/02 01:45:30;;;;;;;2.53;2.10;;;3.50;99.90;;;;;;5078944;28;20169;-78
2022/01/02 01:48:06;;;;;;;2.40;2.20;;;3.60;99.90;;;;;;5077744;28;20439;-78
2022/01/02 01:50:40;;;;;;;3.27;2.27;;;3.70;99.90;;;;;;5079446;28;20411;-78
2022/01/02 01:53:08;;;;;;;3.23;2.33;;;3.60;99.90;;;;;;5078171;28;20419;-78
2022/01/02 01:55:35;;;;;;;2.83;2.47;;;3.50;99.90;;;;;;5077777;28;20451;-78
2022/01/02 01:58:03;;;;;;;3.40;2.33;;;3.30;99.90;;;;;;5078642;28;20446;-78
2022/01/02 02:00:29;;;;;;;3.10;2.63;;;3.30;99.90;;;;;;5077702;28;20909;-78
2022/01/02 02:02:56;;;;;;;4.00;2.90;;;3.10;99.90;;;;;;5078686;28;20516;-81
2022/01/02 02:05:22;;;;;;;4.50;2.53;;;3.00;99.90;;;;;;5079306;28;20415;-78
2022/01/02 02:07:48;;;;;;;3.07;2.70;;;3.00;99.90;;;;;;5077153;28;20485;-78
2022/01/02 02:10:28;;;;;;;3.83;2.67;;;3.00;99.90;;;;;;5079413;28;20214;-78
2022/01/02 02:12:56;;;;;;;3.73;2.40;;;3.10;99.90;;;;;;5077666;28;20164;-78
2022/01/02 02:15:22;;;;;;;3.57;2.20;;;3.10;99.90;;;;;;5079309;28;20421;-78
2022/01/02 02:17:49;;;;;;;3.90;2.30;;;3.10;99.90;;;;;;5077772;28;20960;-78
2022/01/02 02:20:30;;;;;;;2.60;2.03;;;3.20;99.90;;;;;;5078603;28;20415;-78
2022/01/02 02:22:58;;;;;;;2.50;2.07;;;3.20;99.90;;;;;;5078784;28;20446;-78
2022/01/02 02:25:35;;;;;;;2.87;2.37;;;3.20;99.90;;;;;;5077569;28;20812;-78
2022/01/02 02:28:07;;;;;;;2.80;2.20;;;3.30;99.90;;;;;;5078267;28;20795;-78
2022/01/02 02:30:34;;;;;;;2.47;2.10;;;3.40;99.90;;;;;;5077742;28;20404;-78
2022/01/02 02:33:02;;;;;;;2.83;2.00;;;3.30;99.90;;;;;;5077817;28;20426;-78
2022/01/02 02:35:29;;;;;;;3.00;2.10;;;3.40;99.90;;;;;;5079239;28;20418;-78
2022/01/02 02:37:56;;;;;;;2.50;2.17;;;3.60;99.90;;;;;;5080682;28;20837;-78
2022/01/02 02:40:24;;;;;;;1.70;1.60;;;3.60;99.90;;;;;;5082308;28;20407;-78
2022/01/02 02:51:09;;;;;;;3.40;2.13;;;3.70;99.90;;;;;;5076779;28;20394;-78
2022/01/02 02:53:38;;;;;;;1.93;1.57;;;3.70;99.90;;;;;;5082216;28;20417;-78
2022/01/02 02:56:14;;;;;;;1.90;1.67;;;3.80;99.90;;;;;;5077973;28;20204;-78
2022/01/02 02:58:41;;;;;;;2.97;2.17;;;3.70;99.90;;;;;;5076196;28;20201;-78
2022/01/02 03:01:13;;;;;;;4.87;3.17;;;3.80;99.90;;;;;;5085277;28;20611;-78
2022/01/02 03:03:39;;;;;;;8.93;6.13;;;3.80;99.90;;;;;;5084290;28;20207;-78
2022/01/02 03:06:05;;;;;;;18.10;10.90;;;3.70;99.90;;;;;;5089271;28;20177;-78
2022/01/02 03:08:33;;;;;;;12.40;6.97;;;3.70;99.90;;;;;;5090752;28;20208;-78
2022/01/02 03:10:58;;;;;;;29.83;13.60;;;3.70;99.90;;;;;;5082937;28;20212;-78
2022/01/02 03:13:24;;;;;;;20.20;10.80;;;3.80;99.90;;;;;;5077890;28;20171;-78
2022/01/02 03:15:50;;;;;;;9.20;6.23;;;3.80;99.90;;;;;;5076774;28;20190;-78
2022/01/02 03:18:16;;;;;;;2.97;2.40;;;3.90;99.90;;;;;;5076361;28;20194;-78
2022/01/02 03:20:41;;;;;;;2.07;1.87;;;3.90;99.90;;;;;;5077360;28;20173;-78
2022/01/02 03:23:07;;;;;;;2.70;1.50;;;4.00;99.90;;;;;;5077499;28;20197;-78
2022/01/02 03:25:33;;;;;;;2.03;1.70;;;4.00;99.90;;;;;;5079893;28;20556;-77
2022/01/02 03:27:58;;;;;;;1.60;1.47;;;4.00;99.90;;;;;;5077169;28;20247;-78
2022/01/02 03:30:24;;;;;;;3.20;2.37;;;4.00;99.90;;;;;;5076660;28;20182;-78
2022/01/02 03:32:50;;;;;;;2.47;1.93;;;4.00;99.90;;;;;;5077772;28;20174;-78
2022/01/02 03:35:15;;;;;;;2.33;1.90;;;3.90;99.90;;;;;;5075907;28;20581;-78
2022/01/02 03:37:41;;;;;;;1.50;1.30;;;4.00;99.90;;;;;;5076061;28;20237;-78
2022/01/02 03:40:09;;;;;;;2.73;1.30;;;3.90;99.90;;;;;;5076247;28;20178;-78
2022/01/02 03:42:37;;;;;;;2.30;1.50;;;3.80;99.90;;;;;;5077620;28;20261;-78
2022/01/02 03:45:04;;;;;;;1.33;1.23;;;3.80;99.90;;;;;;5078178;28;20166;-78
2022/01/02 03:47:29;;;;;;;1.73;1.57;;;3.80;99.90;;;;;;5078613;28;20190;-78
2022/01/02 03:49:57;;;;;;;1.40;1.30;;;3.80;99.90;;;;;;5078255;28;20180;-78
2022/01/02 03:52:26;;;;;;;1.30;1.20;;;3.70;99.90;;;;;;5075355;28;20206;-78
2022/01/02 03:54:52;;;;;;;1.87;1.70;;;3.80;99.90;;;;;;5077346;28;20249;-78
2022/01/02 03:57:17;;;;;;;1.33;1.23;;;3.70;99.90;;;;;;5077605;28;20231;-78
2022/01/02 03:59:43;;;;;;;3.37;1.50;;;3.80;99.90;;;;;;5076784;28;20211;-78
2022/01/02 04:02:09;;;;;;;1.40;1.30;;;3.70;99.90;;;;;;5076482;28;20208;-78
2022/01/02 04:04:35;;;;;;;2.10;1.87;;;3.70;99.90;;;;;;5075614;28;20174;-78
2022/01/02 04:07:01;;;;;;;2.10;1.60;;;3.60;99.90;;;;;;5076776;28;20194;-78
2022/01/02 04:09:27;;;;;;;1.60;1.50;;;3.60;99.90;;;;;;5076382;28;20173;-78
2022/01/02 04:11:52;;;;;;;2.23;1.30;;;3.60;99.90;;;;;;5076730;28;20203;-78
2022/01/02 04:14:18;;;;;;;1.30;1.17;;;3.70;99.90;;;;;;5077231;28;20262;-78
2022/01/02 04:16:44;;;;;;;2.07;1.10;;;3.80;99.90;;;;;;5076789;28;20184;-77
2022/01/02 04:19:09;;;;;;;1.67;1.50;;;4.50;99.90;;;;;;5076818;28;20197;-78
2022/01/02 04:21:35;;;;;;;1.33;1.10;;;4.00;99.90;;;;;;5075047;28;20187;-78
2022/01/02 04:24:01;;;;;;;3.27;1.17;;;4.10;99.90;;;;;;5076910;28;20287;-78
2022/01/02 04:26:27;;;;;;;1.23;1.13;;;4.20;99.90;;;;;;5075648;28;20184;-77
2022/01/02 04:28:52;;;;;;;1.20;1.10;;;4.20;99.90;;;;;;5076575;28;20230;-77
2022/01/02 04:31:18;;;;;;;1.17;1.07;;;4.40;99.90;;;;;;5076436;28;20171;-78
2022/01/02 04:33:44;;;;;;;1.43;1.30;;;4.20;99.90;;;;;;5076291;28;20205;-78
2022/01/02 04:36:09;;;;;;;1.30;1.20;;;4.50;99.90;;;;;;5075299;28;20177;-78
2022/01/02 04:38:37;;;;;;;1.70;1.17;;;4.40;99.90;;;;;;5075263;28;20192;-78
2022/01/02 04:41:03;;;;;;;1.13;1.00;;;4.30;99.90;;;;;;5076846;28;20173;-78
2022/01/02 04:43:28;;;;;;;1.20;1.10;;;4.40;99.90;;;;;;5076531;28;20633;-78
2022/01/02 04:45:56;;;;;;;1.30;1.20;;;4.40;99.90;;;;;;5076648;28;20170;-78
2022/01/02 04:48:22;;;;;;;1.53;1.07;;;4.30;99.90;;;;;;5075236;28;20202;-78
2022/01/02 04:50:47;;;;;;;1.63;1.53;;;4.30;99.90;;;;;;5076805;28;20167;-78
2022/01/02 04:53:13;;;;;;;2.10;1.40;;;4.20;99.90;;;;;;5077101;28;20177;-78
2022/01/02 04:55:39;;;;;;;2.20;1.37;;;4.20;99.90;;;;;;5077076;28;20178;-78
2022/01/02 04:58:05;;;;;;;1.67;1.30;;;4.20;99.90;;;;;;5076783;28;20200;-78
2022/01/02 05:00:31;;;;;;;0.93;0.93;;;4.20;99.90;;;;;;5074905;28;20247;-78
2022/01/02 05:02:57;;;;;;;1.87;1.40;;;4.20;99.90;;;;;;5076946;28;20189;-78
2022/01/02 05:05:22;;;;;;;1.20;1.07;;;4.20;99.90;;;;;;5076565;28;20255;-78
2022/01/02 05:07:48;;;;;;;1.83;1.10;;;4.20;99.90;;;;;;5076917;28;20209;-78
2022/01/02 05:10:14;;;;;;;1.53;1.23;;;4.20;99.90;;;;;;5078514;28;20183;-78
2022/01/02 05:12:39;;;;;;;1.03;1.03;;;4.20;99.90;;;;;;5077281;28;20179;-78
2022/01/02 05:15:06;;;;;;;2.20;1.37;;;4.20;99.90;;;;;;5080769;28;20196;-78
2022/01/02 05:17:31;;;;;;;1.37;1.10;;;4.20;99.90;;;;;;5076834;28;20202;-78
2022/01/02 05:19:57;;;;;;;1.20;1.10;;;4.20;99.90;;;;;;5076260;28;20183;-78
2022/01/02 05:22:23;;;;;;;1.17;1.07;;;4.20;99.90;;;;;;5078559;28;20202;-78
2022/01/02 05:24:48;;;;;;;1.27;1.17;;;4.20;99.90;;;;;;5080144;28;20515;-78
2022/01/02 05:27:14;;;;;;;1.07;0.97;;;;;;;;;;5079583;28;20292;-78
2022/01/02 05:29:40;;;;;;;1.37;1.10;;;4.20;99.90;;;;;;5080276;28;20170;-78
2022/01/02 05:32:06;;;;;;;4.87;2.10;;;4.20;99.90;;;;;;5080803;28;20279;-78
2022/01/02 05:34:31;;;;;;;3.30;1.63;;;4.20;99.90;;;;;;5078080;28;20205;-78
2022/01/02 05:36:57;;;;;;;1.67;1.50;;;4.20;99.90;;;;;;5078205;28;20207;-78
2022/01/02 05:39:23;;;;;;;2.00;1.20;;;4.20;99.90;;;;;;5079458;28;20658;-78
2022/01/02 05:41:50;;;;;;;1.30;1.20;;;4.10;99.90;;;;;;5078527;28;20206;-78
2022/01/02 05:44:17;;;;;;;1.53;1.43;;;4.20;99.90;;;;;;5077912;28;20181;-78
2022/01/02 05:46:43;;;;;;;1.50;1.37;;;4.10;99.90;;;;;;5077576;28;20178;-78
2022/01/02 05:49:11;;;;;;;1.87;1.37;;;4.10;99.90;;;;;;5076569;28;20962;-78
2022/01/02 05:51:37;;;;;;;1.70;1.60;;;4.10;99.90;;;;;;5077640;28;20169;-77
2022/01/02 05:54:03;;;;;;;1.70;1.60;;;;;;;;;;5077780;28;20246;-78
2022/01/02 05:56:29;;;;;;;1.60;1.50;;;4.10;99.90;;;;;;5077922;28;20188;-77
2022/01/02 05:58:55;;;;;;;1.93;1.20;;;4.20;99.90;;;;;;5083625;28;20204;-78
2022/01/02 06:01:20;;;;;;;2.03;1.33;;;4.20;99.90;;;;;;5078756;28;20284;-78
2022/01/02 06:03:46;;;;;;;4.90;1.53;;;4.30;99.90;;;;;;5078868;28;20204;-78
2022/01/02 06:06:12;;;;;;;4.57;1.10;;;4.30;99.90;;;;;;5077336;28;20178;-78
2022/01/02 06:08:38;;;;;;;2.50;1.20;;;4.30;99.90;;;;;;5077075;28;20566;-78
2022/01/02 06:11:03;;;;;;;2.17;1.20;;;4.40;99.90;;;;;;5079193;28;20174;-78
2022/01/02 06:13:29;;;;;;;2.13;1.60;;;4.40;99.90;;;;;;5078573;28;20173;-78
2022/01/02 06:15:55;;;;;;;2.27;1.50;;;4.50;99.90;;;;;;5078548;28;20176;-78
2022/01/02 06:18:20;;;;;;;2.63;1.60;;;4.50;99.90;;;;;;5078650;28;20212;-78
2022/01/02 06:20:46;;;;;;;1.30;1.20;;;4.50;99.90;;;;;;5078363;28;20263;-78
2022/01/02 06:23:12;;;;;;;1.50;1.40;;;4.50;99.90;;;;;;5077085;28;20693;-78
2022/01/02 06:25:37;;;;;;;2.63;1.80;;;4.50;99.90;;;;;;5078301;28;20645;-78
2022/01/02 06:28:03;;;;;;;1.40;1.30;;;4.50;99.90;;;;;;5078724;28;20537;-78
2022/01/02 06:30:29;;;;;;;1.93;1.00;;;4.50;99.90;;;;;;5078432;28;20176;-77
2022/01/02 06:32:55;;;;;;;1.30;1.20;;;4.30;99.90;;;;;;5077200;28;20759;-78
2022/01/02 06:35:29;;;;;;;1.30;1.20;;;4.40;99.90;;;;;;5076781;28;20196;-78
2022/01/02 06:37:56;;;;;;;1.30;1.20;;;4.30;99.90;;;;;;5077614;28;20209;-78
2022/01/02 06:40:22;;;;;;;1.83;1.30;;;4.40;99.90;;;;;;5078220;28;20419;-78
2022/01/02 06:42:49;;;;;;;1.33;1.23;;;4.40;99.90;;;;;;5076653;28;20459;-79
2022/01/02 06:45:15;;;;;;;1.30;1.13;;;4.50;99.90;;;;;;5078257;28;20404;-78
2022/01/02 06:47:41;;;;;;;2.07;1.70;;;4.50;99.90;;;;;;5076802;28;20435;-78
2022/01/02 06:50:08;;;;;;;1.20;1.10;;;;;;;;;;5076530;28;20637;-77
2022/01/02 06:52:33;;;;;;;1.73;1.63;;;4.50;99.90;;;;;;5078128;28;20400;-78
2022/01/02 06:54:59;;;;;;;1.73;1.30;;;4.60;99.90;;;;;;5078570;28;20541;-78
2022/01/02 06:57:25;;;;;;;1.70;1.60;;;4.60;99.90;;;;;;5077776;28;20193;-78
2022/01/02 06:59:51;;;;;;;2.27;1.67;;;4.70;99.90;;;;;;5078214;28;20177;-78
2022/01/02 07:02:18;;;;;;;1.97;1.70;;;4.80;99.90;;;;;;5077860;28;20466;-78
2022/01/02 07:04:43;;;;;;;2.10;1.80;;;4.70;99.90;;;;;;5076633;28;20180;-78
2022/01/02 07:07:10;;;;;;;2.40;1.70;;;4.70;99.90;;;;;;5076859;28;20435;-78
2022/01/02 07:09:36;;;;;;;1.70;1.60;;;4.70;99.90;;;;;;5078655;28;20622;-78
2022/01/02 07:12:03;;;;;;;2.43;1.60;;;4.70;99.90;;;;;;5086943;28;20467;-78
2022/01/02 07:14:30;;;;;;;2.33;1.10;;;4.70;99.90;;;;;;5093085;28;20423;-78
2022/01/02 07:17:00;;;;;;;1.83;1.53;;;4.70;99.90;;;;;;5093137;28;20445;-78
2022/01/02 07:19:26;;;;;;;1.83;1.40;;;4.70;99.90;;;;;;5082179;28;20181;-78
2022/01/02 07:21:52;;;;;;;1.53;1.20;;;4.80;99.90;;;;;;5076214;28;20430;-78
2022/01/02 07:24:19;;;;;;;1.80;1.60;;;4.80;99.90;;;;;;5077486;28;20407;-78
2022/01/02 07:26:44;;;;;;;2.03;1.33;;;4.90;99.90;;;;;;5077482;28;20274;-78
2022/01/02 07:29:10;;;;;;;1.10;1.00;;;4.90;99.90;;;;;;5077844;28;20909;-78
2022/01/02 07:31:37;;;;;;;1.47;1.37;;;4.80;99.90;;;;;;5076611;28;20176;-78
2022/01/02 07:34:04;;;;;;;1.53;1.30;;;4.90;99.90;;;;;;5077669;28;20415;-78
2022/01/02 07:36:30;;;;;;;1.33;1.07;;;4.90;99.90;;;;;;5078570;28;20411;-78
2022/01/02 07:38:56;;;;;;;1.87;1.20;;;5.00;99.90;;;;;;5080675;28;20534;-78
2022/01/02 07:41:23;;;;;;;1.43;1.33;;;5.00;99.90;;;;;;5081470;28;20186;-78
2022/01/02 07:43:48;;;;;;;2.23;1.20;;;5.10;99.90;;;;;;5076683;28;20495;-78
2022/01/02 07:46:14;;;;;;;1.10;1.00;;;5.20;99.90;;;;;;5077896;28;20407;-78
2022/01/02 07:48:40;;;;;;;1.97;1.43;;;5.30;99.90;;;;;;5075722;28;20655;-78
2022/01/02 07:51:05;;;;;;;1.53;1.43;;;5.40;99.90;;;;;;5077993;28;20643;-78
2022/01/02 07:53:31;;;;;;;1.43;1.23;;;5.50;99.90;;;;;;5079995;28;20262;-78
2022/01/02 07:55:57;;;;;;;1.60;0.90;;;5.70;99.90;;;;;;5076928;28;20180;-78
2022/01/02 07:58:23;;;;;;;1.27;1.10;;;5.90;99.90;;;;;;5076208;28;20554;-78
2022/01/02 08:00:50;;;;;;;1.97;1.00;;;5.90;99.90;;;;;;5076607;28;20189;-78
2022/01/02 08:03:17;;;;;;;2.33;1.50;;;5.90;99.90;;;;;;5078913;28;20232;-78
2022/01/02 08:05:43;;;;;;;1.70;1.30;;;5.90;99.90;;;;;;5075923;28;20178;-78
2022/01/02 08:08:10;;;;;;;1.40;1.07;;;5.90;99.90;;;;;;5076805;28;20193;-78
2022/01/02 08:10:38;;;;;;;1.47;1.10;;;6.00;99.90;;;;;;5076049;28;20169;-78
2022/01/02 08:13:04;;;;;;;1.30;1.20;;;6.10;99.90;;;;;;5076383;28;20173;-78
2022/01/02 08:15:29;;;;;;;0.93;0.90;;;6.10;99.90;;;;;;5074822;28;20476;-78
2022/01/02 08:17:55;;;;;;;1.30;1.10;;;6.10;99.90;;;;;;5076350;28;20188;-78
2022/01/02 08:20:21;;;;;;;1.60;1.30;;;6.20;99.90;;;;;;5076084;28;20173;-79
2022/01/02 08:22:47;;;;;;;2.50;1.40;;;6.20;99.90;;;;;;5076261;28;20239;-78
2022/01/02 08:25:13;;;;;;;2.20;1.87;;;6.40;99.90;;;;;;5074766;28;20516;-78
2022/01/02 08:27:39;;;;;;;1.63;1.53;;;6.70;99.90;;;;;;5076131;28;20569;-78
2022/01/02 08:30:06;;;;;;;1.60;1.50;;;7.00;99.90;;;;;;5076623;28;20169;-78
2022/01/02 08:32:32;;;;;;;1.20;1.00;;;7.10;99.90;;;;;;5075316;28;20183;-78
2022/01/02 08:34:57;;;;;;;2.37;1.13;;;7.10;99.90;;;;;;5076617;28;20583;-78
2022/01/02 08:37:23;;;;;;;1.10;1.00;;;7.10;99.90;;;;;;5076229;28;20211;-78
2022/01/02 08:39:49;;;;;;;1.60;1.17;;;7.10;99.90;;;;;;5076061;28;20176;-78
2022/01/02 08:42:18;;;;;;;1.30;0.90;;;7.10;99.90;;;;;;5074754;28;20206;-78
2022/01/02 08:44:43;;;;;;;1.27;1.17;;;7.10;99.90;;;;;;5074081;28;20212;-78
2022/01/02 08:47:10;;;;;;;2.33;1.60;;;7.10;99.90;;;;;;5074793;28;20560;-78
2022/01/02 08:49:36;;;;;;;1.87;1.10;;;7.20;99.90;;;;;;5074857;28;20260;-78
2022/01/02 08:52:02;;;;;;;1.83;1.40;;;7.30;99.90;;;;;;5074463;28;20635;-78
2022/01/02 08:54:28;;;;;;;2.33;1.37;;;7.30;99.90;;;;;;5073218;28;20726;-78
2022/01/02 08:56:53;;;;;;;2.13;1.23;;;7.40;99.90;;;;;;5078595;28;20174;-78
2022/01/02 08:59:24;;;;;;;2.97;1.90;;;7.40;99.90;;;;;;5080437;28;20178;-78
2022/01/02 09:01:50;;;;;;;3.23;2.07;;;7.40;99.90;;;;;;5080150;28;20193;-78
2022/01/02 09:04:16;;;;;;;5.50;2.57;;;7.90;99.90;;;;;;5085509;28;20173;-79
2022/01/02 09:06:42;;;;;;;3.00;2.00;;;8.60;99.90;;;;;;5080590;28;20177;-79
2022/01/02 09:09:08;;;;;;;2.00;1.30;;;9.10;99.90;;;;;;5081373;28;20170;-79
2022/01/02 09:11:34;;;;;;;2.33;1.30;;;9.60;99.90;;;;;;5082014;28;20250;-79
2022/01/02 09:14:02;;;;;;;1.50;1.07;;;9.70;99.90;;;;;;5082360;28;20637;-79
2022/01/02 09:16:28;;;;;;;1.30;0.90;;;9.90;99.90;;;;;;5084807;28;20172;-79
2022/01/02 09:18:54;;;;;;;1.17;0.93;;;10.20;98.90;;;;;;5086313;28;20188;-79
2022/01/02 09:21:19;;;;;;;1.60;1.10;;;10.50;98.10;;;;;;5083571;28;20205;-79
2022/01/02 09:23:45;;;;;;;1.07;0.90;;;10.50;97.10;;;;;;5082136;28;20550;-79
2022/01/02 09:26:11;;;;;;;1.63;0.90;;;10.50;96.70;;;;;;5082923;28;20176;-79
2022/01/02 09:28:37;;;;;;;1.60;1.10;;;10.70;96.80;;;;;;5081724;28;20201;-80
2022/01/02 09:31:03;;;;;;;1.43;1.00;;;10.90;95.90;;;;;;5078996;28;20639;-80
2022/01/02 09:33:29;;;;;;;1.53;1.10;;;11.40;95.80;;;;;;5078496;28;20181;-80
2022/01/02 09:36:03;;;;;;;1.37;1.10;;;11.70;94.30;;;;;;5080933;28;20177;-80
2022/01/02 09:38:29;;;;;;;1.80;1.10;;;12.10;92.80;;;;;;5078538;28;20200;-80
2022/01/02 09:40:55;;;;;;;1.70;1.20;;;12.50;92.10;;;;;;5078253;28;20175;-79
2022/01/02 09:43:20;;;;;;;1.63;1.30;;;12.40;91.20;;;;;;5082655;28;20203;-82
2022/01/02 09:45:48;;;;;;;2.00;1.40;;;12.00;91.00;;;;;;5079544;28;20204;-80
2022/01/02 09:48:14;;;;;;;1.33;1.20;;;12.00;92.30;;;;;;5079172;28;20238;-79
2022/01/02 09:50:41;;;;;;;1.33;1.23;;;12.50;91.40;;;;;;5078997;28;20177;-79
2022/01/02 09:53:07;;;;;;;2.00;1.23;;;12.80;90.40;;;;;;5080626;28;20263;-80
2022/01/02 09:55:34;;;;;;;2.20;1.30;;;13.00;90.20;;;;;;5080116;28;20174;-80
2022/01/02 09:58:00;;;;;;;2.27;1.80;;;12.90;88.50;;;;;;5079223;28;20208;-80
2022/01/02 10:00:28;;;;;;;2.10;1.57;;;12.70;88.70;;;;;;5079128;28;20214;-80
2022/01/02 10:02:55;;;;;;;1.57;1.40;;;12.50;88.00;;;;;;5080957;28;20218;-80
2022/01/02 10:05:24;;;;;;;1.83;1.40;;;12.20;88.00;;;;;;5080976;28;20175;-80
2022/01/02 10:07:51;;;;;;;1.47;1.30;;;11.70;88.10;;;;;;5083735;28;20234;-81
2022/01/02 10:10:17;;;;;;;2.13;1.37;;;11.80;90.10;;;;;;5086182;28;20237;-79
2022/01/02 10:12:42;;;;;;;4.47;1.67;;;12.00;89.20;;;;;;5080251;28;20224;-80
2022/01/02 10:15:11;;;;;;;1.67;1.57;;;12.10;88.50;;;;;;5081418;28;20220;-80
2022/01/02 10:18:07;;;;;;;11.43;9.03;;;12.20;88.30;;;;;;5079495;28;20203;-80
2022/01/02 10:20:36;;;;;;;24.07;17.47;;;12.20;89.30;;;;;;5077470;28;20672;-80
2022/01/02 10:23:17;;;;;;;13.43;9.83;;;12.20;90.20;;;;;;5081433;28;20213;-81
2022/01/02 10:25:56;;;;;;;10.97;9.73;;;12.60;90.30;;;;;;5079345;28;20189;-80
2022/01/02 10:28:40;;;;;;;8.47;7.67;;;12.70;89.70;;;;;;5081360;28;20189;-80
2022/01/02 10:31:09;;;;;;;9.13;8.30;;;12.70;90.60;;;;;;5081264;28;20173;-80
2022/01/02 10:33:55;;;;;;;5.30;4.90;;;12.60;90.40;;;;;;5079131;28;20244;-79
2022/01/02 10:36:29;;;;;;;2.10;1.80;;;12.90;90.10;;;;;;5079921;28;20167;-80
2022/01/02 10:39:13;;;;;;;2.53;2.33;;;13.60;86.80;;;;;;5078976;28;20198;-80
2022/01/02 10:41:41;;;;;;;3.03;0.93;;;14.20;80.00;;;;;;5080966;28;20239;-81
2022/01/02 10:44:41;;;;;;;0.93;0.83;;;14.80;73.10;;;;;;5081555;28;20649;-81
2022/01/02 10:47:10;;;;;;;1.03;0.87;;;15.50;72.10;;;;;;5059088;28;20234;-81
2022/01/02 10:50:02;;;;;;;1.10;0.90;;;15.90;69.50;;;;;;5081746;28;20176;-80
2022/01/02 10:52:32;;;;;;;0.80;0.80;;;16.20;64.50;;;;;;5082550;28;20152;-80
2022/01/02 10:55:00;;;;;;;1.00;0.90;;;16.70;61.10;;;;;;5081505;28;20230;-81
2022/01/02 10:57:26;;;;;;;0.70;0.70;;;17.00;58.20;;;;;;5088317;28;20730;-81
2022/01/02 10:59:57;;;;;;;1.80;0.70;;;17.20;57.70;;;;;;5089028;28;20205;-79
2022/01/02 11:02:24;;;;;;;1.00;0.90;;;17.10;56.90;;;;;;5083188;28;20311;-80
2022/01/02 11:05:04;;;;;;;0.87;0.70;;;16.80;57.10;;;;;;5078727;28;20188;-80
2022/01/02 11:07:43;;;;;;;1.37;0.90;;;16.50;56.60;;;;;;5077642;28;20223;-79
2022/01/02 11:10:11;;;;;;;1.67;0.57;;;15.80;57.30;;;;;;5079146;28;20165;-80
2022/01/02 11:12:38;;;;;;;1.00;0.80;;;15.50;57.30;;;;;;5080928;28;20249;-79
2022/01/02 11:15:07;;;;;;;2.57;1.10;;;15.30;56.90;;;;;;5081970;28;20168;-81
2022/01/02 11:17:35;;;;;;;2.63;2.10;;;15.20;57.70;;;;;;5081706;28;20257;-81
2022/01/02 11:20:06;;;;;;;1.00;0.80;;;15.00;58.90;;;;;;5078115;28;20180;-79
2022/01/02 11:22:39;;;;;;;1.20;0.80;;;14.80;57.70;;;;;;5080767;28;20598;-79
2022/01/02 11:25:12;;;;;;;1.00;0.90;;;14.80;57.70;;;;;;5080415;28;20168;-81
2022/01/02 11:27:51;;;;;;;0.67;0.50;;;14.90;58.20;;;;;;5079914;28;20215;-79
2022/01/02 11:30:35;;;;;;;0.80;0.60;;;14.90;57.80;;;;;;5079019;28;20160;-79
2022/01/02 11:33:12;;;;;;;0.93;0.73;;;14.90;57.40;;;;;;5079955;28;20175;-79
2022/01/02 11:35:41;;;;;;;0.70;0.70;;;14.80;57.00;;;;;;5080642;28;20169;-79
2022/01/02 11:38:07;;;;;;;1.10;0.80;;;14.90;57.40;;;;;;5079100;28;20278;-79
2022/01/02 11:40:58;;;;;;;1.17;0.80;;;15.20;56.30;;;;;;5080783;28;20206;-79
2022/01/02 11:43:37;;;;;;;0.70;0.70;;;15.00;56.50;;;;;;5078500;28;20179;-80
2022/01/02 11:46:17;;;;;;;2.00;0.60;;;14.90;56.60;;;;;;5078187;28;20170;-80
2022/01/02 11:49:13;;;;;;;0.60;0.60;;;14.70;56.50;;;;;;5081053;28;20202;-80
2022/01/02 11:51:50;;;;;;;0.93;0.60;;;14.60;56.60;;;;;;5080934;28;20180;-80
2022/01/02 11:54:28;;;;;;;0.60;0.60;;;14.60;56.60;;;;;;5081525;28;20170;-80
2022/01/02 11:57:18;;;;;;;0.80;0.70;;;14.60;57.30;;;;;;5084172;28;20239;-80
2022/01/02 11:59:46;;;;;;;0.90;0.70;;;14.60;57.30;;;;;;5054494;28;20219;-80
2022/01/02 12:02:18;;;;;;;0.50;0.50;;;14.60;56.90;;;;;;5081228;28;20236;-80
2022/01/02 12:04:59;;;;;;;0.97;0.70;;;14.60;57.10;;;;;;5080812;28;20173;-79
2022/01/02 12:07:37;;;;;;;0.80;0.70;;;14.60;56.60;;;;;;5081180;28;20716;-79
2022/01/02 12:10:19;;;;;;;0.50;0.50;;;14.60;56.90;;;;;;5080686;28;20646;-79
2022/01/02 12:13:05;;;;;;;0.47;0.47;;;14.60;56.60;;;;;;5081231;28;20183;-79
2022/01/02 12:15:31;;;;;;;0.73;0.63;;;14.60;56.50;;;;;;5082000;28;20177;-80
2022/01/02 12:18:19;;;;;;;0.67;0.50;;;14.60;57.20;;;;;;5082704;28;20202;-78
2022/01/02 12:20:54;;;;;;;0.53;0.50;;;14.70;56.30;;;;;;5078890;28;20245;-79
2022/01/02 12:23:41;;;;;;;0.60;0.60;;;15.00;55.70;;;;;;5078679;28;20278;-79
2022/01/02 12:26:21;;;;;;;0.90;0.73;;;15.20;55.50;;;;;;5080665;28;20232;-80
2022/01/02 12:28:57;;;;;;;1.23;0.60;;;15.30;55.50;;;;;;5080525;28;20192;-80
2022/01/02 12:31:43;;;;;;;0.63;0.60;;;15.20;56.10;;;;;;5081573;28;20181;-79
2022/01/02 12:34:22;;;;;;;0.50;0.50;;;15.30;55.20;;;;;;5084099;28;20165;-79
2022/01/02 12:36:50;;;;;;;0.50;0.50;;;15.40;54.90;;;;;;5083528;28;20150;-79
2022/01/02 12:39:29;;;;;;;0.80;0.60;;;15.50;54.40;;;;;;5084429;28;20515;-80
2022/01/02 12:42:14;;;;;;;0.50;0.50;;;15.40;55.00;;;;;;5082238;28;20177;-79
2022/01/02 12:44:41;;;;;;;0.60;0.50;;;15.50;55.30;;;;;;5083670;28;20161;-79
2022/01/02 12:47:08;;;;;;;1.00;0.70;;;15.70;54.20;;;;;;5086397;28;20190;-79
2022/01/02 12:49:38;;;;;;;0.60;0.60;;;15.50;54.50;;;;;;5096363;28;20181;-79
2022/01/02 12:52:06;;;;;;;0.97;0.70;;;15.30;54.40;;;;;;5095610;28;20521;-79
2022/01/02 12:54:36;;;;;;;0.90;0.80;;;15.30;54.70;;;;;;5108661;28;20178;-79
2022/01/02 12:57:08;;;;;;;1.40;0.70;;;15.20;55.20;;;;;;5101220;28;20208;-80
2022/01/02 12:59:39;;;;;;;0.63;0.60;;;15.10;54.70;;;;;;5101549;28;20178;-79
2022/01/02 13:02:09;;;;;;;1.07;0.83;;;15.00;55.00;;;;;;5101868;28;20264;-79
2022/01/02 13:04:42;;;;;;;0.77;0.70;;;15.00;55.70;;;;;;5101414;28;20206;-79
2022/01/02 13:07:29;;;;;;;1.83;0.93;;;15.00;55.00;;;;;;5102613;28;20223;-79
2022/01/02 13:09:59;;;;;;;2.07;0.70;;;15.20;55.20;;;;;;5100780;28;20216;-79
2022/01/02 13:12:30;;;;;;;1.00;0.70;;;15.30;55.30;;;;;;5102600;28;20181;-78